Time;durP1;ratioP1;P1;durP2;ratioP2;P2;SDS_P1;SDS_P2;PMS_P1;PMS_P2;Temp;Humidity;BMP_temperature;BMP_pressure;BME280_temperature;BME280_humidity;BME280_pressure;Samples;Min_cycle;Max_cycle;Signal;HPM_P1;HPM_P2
2022/07/16 00:01:22;;;;;;;5.20;2.57;;;19.90;1.00;;;;;;5116232;28;20215;-81
2022/07/16 00:03:49;;;;;;;6.13;2.77;;;19.90;1.00;;;;;;5116634;28;20213;-80
2022/07/16 00:06:15;;;;;;;7.93;2.80;;;19.70;1.00;;;;;;5118334;28;20173;-81
2022/07/16 00:08:41;;;;;;;6.37;2.73;;;19.60;1.00;;;;;;5118309;28;20169;-81
2022/07/16 00:11:06;;;;;;;5.57;2.77;;;19.50;1.00;;;;;;5099658;28;20168;-79
2022/07/16 00:13:32;;;;;;;5.80;2.93;;;19.40;1.00;;;;;;5117125;28;20167;-80
2022/07/16 00:15:58;;;;;;;5.27;2.70;;;19.30;1.00;;;;;;5116507;28;20171;-81
2022/07/16 00:21:08;;;;;;;4.60;2.57;;;19.10;1.00;;;;;;5117797;28;20218;-81
2022/07/16 00:23:33;;;;;;;9.87;3.20;;;19.10;1.00;;;;;;5117086;28;20704;-82
2022/07/16 00:26:00;;;;;;;5.27;3.27;;;19.00;1.00;;;;;;5117466;28;20512;-81
2022/07/16 00:28:26;;;;;;;4.00;2.83;;;18.90;1.00;;;;;;5098852;28;20172;-80
2022/07/16 00:30:51;;;;;;;6.17;3.10;;;18.90;1.00;;;;;;5119360;28;20717;-81
2022/07/16 00:33:17;;;;;;;5.83;3.17;;;18.90;1.00;;;;;;5100255;28;20176;-81
2022/07/16 00:35:43;;;;;;;7.33;3.00;;;18.80;1.00;;;;;;5120528;28;20191;-79
2022/07/16 00:38:08;;;;;;;7.03;2.87;;;18.70;1.00;;;;;;5117754;28;20220;-80
2022/07/16 00:40:34;;;;;;;6.33;2.97;;;18.70;1.00;;;;;;5119947;28;20166;-82
2022/07/16 00:43:01;;;;;;;6.27;3.00;;;18.70;1.00;;;;;;5114935;28;20298;-80
2022/07/16 00:45:27;;;;;;;5.33;3.13;;;18.70;1.00;;;;;;5118285;28;20168;-81
2022/07/16 00:47:53;;;;;;;5.47;2.93;;;18.70;1.00;;;;;;5123602;28;20232;-82
2022/07/16 00:50:18;;;;;;;6.93;3.20;;;18.90;1.00;;;;;;5097279;28;20203;-81
2022/07/16 00:52:44;;;;;;;4.83;2.63;;;18.80;1.00;;;;;;5115604;28;20168;-80
2022/07/16 00:55:10;;;;;;;7.03;3.10;;;18.70;1.00;;;;;;5129750;28;20175;-81
2022/07/16 00:57:36;;;;;;;4.70;2.93;;;18.60;1.00;;;;;;5113581;28;20194;-79
2022/07/16 01:00:04;;;;;;;6.30;3.00;;;18.60;1.00;;;;;;5097926;28;20179;-81
2022/07/16 01:02:30;;;;;;;7.43;2.80;;;18.70;1.00;;;;;;5114787;28;20188;-79
2022/07/16 01:04:56;;;;;;;5.97;3.13;;;18.80;1.00;;;;;;5096480;28;20689;-82
2022/07/16 01:07:23;;;;;;;7.27;2.97;;;18.90;1.00;;;;;;5115736;28;20626;-81
2022/07/16 01:09:50;;;;;;;7.33;2.83;;;19.00;1.00;;;;;;5118229;28;20221;-80
2022/07/16 01:12:16;;;;;;;5.67;3.00;;;19.10;1.00;;;;;;5115111;28;20226;-80
2022/07/16 01:14:44;;;;;;;8.07;3.00;;;18.90;1.00;;;;;;5096490;28;20206;-81
2022/07/16 01:17:09;;;;;;;5.77;2.90;;;18.90;1.00;;;;;;5097089;28;20179;-81
2022/07/16 01:19:35;;;;;;;5.20;3.30;;;19.00;1.00;;;;;;5096035;28;20191;-82
2022/07/16 01:22:00;;;;;;;7.73;2.90;;;18.90;1.00;;;;;;5115689;28;20178;-81
2022/07/16 01:24:26;;;;;;;5.37;3.10;;;18.90;1.00;;;;;;5118732;28;20242;-80
2022/07/16 01:26:52;;;;;;;5.50;3.10;;;18.90;1.00;;;;;;5128778;28;20167;-80
2022/07/16 01:29:17;;;;;;;5.60;3.03;;;18.80;1.00;;;;;;5106732;28;20182;-81
2022/07/16 01:31:43;;;;;;;3.63;2.83;;;18.70;1.00;;;;;;5121731;28;20167;-79
2022/07/16 01:34:27;;;;;;;5.43;2.97;;;18.70;1.00;;;;;;5104010;28;20179;-82
2022/07/16 01:36:58;;;;;;;6.33;3.03;;;18.60;1.00;;;;;;5098101;28;20266;-81
2022/07/16 01:39:26;;;;;;;6.17;3.07;;;18.50;1.00;;;;;;5115038;28;20159;-81
2022/07/16 01:41:53;;;;;;;5.07;3.20;;;18.50;1.00;;;;;;5096944;28;20633;-80
2022/07/16 01:44:19;;;;;;;5.80;3.03;;;18.40;1.00;;;;;;5120682;28;20183;-81
2022/07/16 01:46:45;;;;;;;7.00;2.97;;;18.30;1.00;;;;;;5135312;28;20174;-79
2022/07/16 01:49:11;;;;;;;6.53;2.90;;;18.20;1.00;;;;;;5132200;28;20171;-81
2022/07/16 01:51:36;;;;;;;6.93;3.00;;;18.20;1.00;;;;;;5132331;28;20238;-80
2022/07/16 01:54:03;;;;;;;7.63;3.10;;;18.20;1.00;;;;;;5137880;28;20150;-82
2022/07/16 01:56:29;;;;;;;6.73;3.17;;;18.30;1.00;;;;;;5136354;28;20189;-79
2022/07/16 01:58:54;;;;;;;9.53;3.90;;;18.20;1.00;;;;;;5137626;28;20211;-81
2022/07/16 02:01:20;;;;;;;10.73;3.80;;;18.10;1.00;;;;;;5118644;28;20172;-81
2022/07/16 02:03:49;;;;;;;6.77;3.00;;;18.10;1.00;;;;;;5135774;28;20199;-80
2022/07/16 02:06:14;;;;;;;7.73;3.40;;;18.10;1.00;;;;;;5111130;28;20176;-80
2022/07/16 02:08:40;;;;;;;10.27;3.70;;;18.00;1.00;;;;;;5123156;28;20174;-81
2022/07/16 02:11:07;;;;;;;8.00;3.73;;;18.00;1.00;;;;;;5127915;28;20171;-80
2022/07/16 02:13:38;;;;;;;8.83;3.90;;;18.00;1.00;;;;;;5131669;28;20599;-81
2022/07/16 02:16:04;;;;;;;10.20;4.03;;;17.80;1.00;;;;;;5112888;28;20172;-81
2022/07/16 02:18:30;;;;;;;8.20;3.60;;;17.80;1.00;;;;;;5116175;28;20197;-80
2022/07/16 02:20:56;;;;;;;7.70;3.60;;;17.90;1.00;;;;;;5116203;28;20212;-81
2022/07/16 02:23:23;;;;;;;8.77;3.77;;;17.90;1.00;;;;;;5120824;28;20207;-79
2022/07/16 02:25:49;;;;;;;9.80;3.77;;;17.80;1.00;;;;;;5129657;28;20160;-81
2022/07/16 02:28:14;;;;;;;6.83;4.07;;;17.70;1.00;;;;;;5108435;28;20251;-82
2022/07/16 02:30:48;;;;;;;7.37;3.97;;;17.80;1.00;;;;;;5104060;28;20528;-81
2022/07/16 02:33:19;;;;;;;7.77;3.57;;;17.70;1.00;;;;;;5121946;28;20162;-81
2022/07/16 02:35:47;;;;;;;7.67;3.87;;;17.70;1.00;;;;;;5121625;28;20171;-81
2022/07/16 02:38:17;;;;;;;8.90;3.87;;;17.70;1.00;;;;;;5095888;28;20184;-80
2022/07/16 02:40:43;;;;;;;9.60;3.70;;;17.60;1.00;;;;;;5115003;28;20188;-81
2022/07/16 02:43:11;;;;;;;6.67;3.63;;;17.60;1.00;;;;;;5116302;28;20235;-81
2022/07/16 02:45:40;;;;;;;5.70;3.80;;;17.60;1.00;;;;;;5118321;28;20151;-82
2022/07/16 02:48:06;;;;;;;6.60;3.90;;;17.70;1.00;;;;;;5118157;28;20156;-80
2022/07/16 02:50:32;;;;;;;5.53;3.50;;;17.60;1.00;;;;;;5118216;28;20745;-80
2022/07/16 02:52:58;;;;;;;4.63;3.70;;;17.60;1.00;;;;;;5118496;28;20163;-80
2022/07/16 02:55:24;;;;;;;5.03;3.53;;;17.60;1.00;;;;;;5105008;28;20581;-79
2022/07/16 02:57:50;;;;;;;5.67;3.67;;;17.60;1.00;;;;;;5112521;28;20197;-79
2022/07/16 03:00:16;;;;;;;5.30;3.40;;;17.60;1.00;;;;;;5128075;28;20167;-81
2022/07/16 03:02:43;;;;;;;4.20;3.37;;;17.60;1.00;;;;;;5124290;28;20254;-80
2022/07/16 03:05:09;;;;;;;5.43;2.93;;;17.60;1.00;;;;;;5117753;28;20561;-79
2022/07/16 03:07:36;;;;;;;6.03;3.23;;;17.40;1.00;;;;;;5118161;28;20301;-79
2022/07/16 03:10:02;;;;;;;5.97;3.47;;;17.30;1.00;;;;;;5127695;28;20180;-80
2022/07/16 03:12:28;;;;;;;5.60;3.40;;;17.30;1.00;;;;;;5129485;28;20231;-81
2022/07/16 03:14:54;;;;;;;6.67;3.60;;;17.30;1.00;;;;;;5129333;28;20167;-81
2022/07/16 03:17:19;;;;;;;5.43;3.33;;;17.10;1.00;;;;;;5108761;28;20229;-81
2022/07/16 03:19:45;;;;;;;4.47;3.03;;;17.10;1.00;;;;;;5128677;28;20187;-80
2022/07/16 03:22:11;;;;;;;5.33;3.60;;;17.00;1.00;;;;;;5111218;28;20544;-82
2022/07/16 03:24:36;;;;;;;5.83;3.13;;;17.00;1.00;;;;;;5108647;28;20180;-78
2022/07/16 03:27:03;;;;;;;5.97;3.20;;;17.00;1.00;;;;;;5110419;28;20187;-80
2022/07/16 03:29:29;;;;;;;5.50;3.73;;;17.00;1.00;;;;;;5128700;28;20232;-80
2022/07/16 03:31:55;;;;;;;5.63;3.40;;;16.90;1.00;;;;;;5128397;28;20163;-79
2022/07/16 03:34:20;;;;;;;8.17;3.63;;;16.90;1.00;;;;;;5121594;28;20173;-79
2022/07/16 03:36:46;;;;;;;5.33;3.30;;;16.90;1.00;;;;;;5125046;28;20167;-80
2022/07/16 03:39:12;;;;;;;9.40;3.60;;;16.90;1.00;;;;;;5125804;28;20172;-79
2022/07/16 03:41:38;;;;;;;8.47;3.30;;;16.90;1.00;;;;;;5118758;28;20650;-79
2022/07/16 03:44:07;;;;;;;7.87;3.80;;;17.00;1.00;;;;;;5100951;28;20218;-83
2022/07/16 03:46:35;;;;;;;5.53;3.40;;;17.10;1.00;;;;;;5119579;28;20168;-81
2022/07/16 03:49:02;;;;;;;7.67;3.73;;;16.90;1.00;;;;;;5118050;28;20175;-79
2022/07/16 03:51:29;;;;;;;4.63;3.20;;;16.80;1.00;;;;;;5117915;28;20167;-81
2022/07/16 03:53:55;;;;;;;5.27;3.93;;;16.80;1.00;;;;;;5116367;28;20163;-81
2022/07/16 03:56:21;;;;;;;8.60;3.50;;;16.80;1.00;;;;;;5116493;28;20165;-81
2022/07/16 03:58:46;;;;;;;7.07;3.40;;;16.80;1.00;;;;;;5117625;28;20202;-79
2022/07/16 04:01:12;;;;;;;6.77;3.23;;;16.70;1.00;;;;;;5118593;28;20182;-80
2022/07/16 04:03:38;;;;;;;8.03;3.83;;;16.60;1.00;;;;;;5098377;28;20250;-80
2022/07/16 04:06:04;;;;;;;7.20;3.73;;;16.60;1.00;;;;;;5116872;28;20638;-81
2022/07/16 04:08:30;;;;;;;5.97;3.53;;;16.60;1.00;;;;;;5138041;28;20172;-80
2022/07/16 04:10:56;;;;;;;6.23;3.30;;;16.60;1.00;;;;;;5129389;28;20175;-81
2022/07/16 04:13:28;;;;;;;5.60;4.07;;;16.80;1.00;;;;;;5118230;28;20221;-81
2022/07/16 04:15:54;;;;;;;6.30;3.80;;;16.80;1.00;;;;;;5097572;28;20662;-81
2022/07/16 04:18:20;;;;;;;6.97;3.50;;;17.00;1.00;;;;;;5097701;28;20195;-81
2022/07/16 04:20:49;;;;;;;5.53;3.60;;;16.90;1.00;;;;;;5117410;28;20179;-80
2022/07/16 04:23:15;;;;;;;8.40;3.50;;;17.00;1.00;;;;;;5098148;28;20256;-80
2022/07/16 04:25:41;;;;;;;7.03;3.70;;;17.00;1.00;;;;;;5123170;28;20212;-80
2022/07/16 04:28:06;;;;;;;7.30;3.43;;;17.00;1.00;;;;;;5140218;28;20186;-81
2022/07/16 04:30:33;;;;;;;6.47;3.37;;;17.10;1.00;;;;;;5108827;28;20171;-80
2022/07/16 04:32:58;;;;;;;5.50;3.30;;;17.30;1.00;;;;;;5117524;28;20194;-80
2022/07/16 04:35:24;;;;;;;6.90;3.13;;;17.30;1.00;;;;;;5097299;28;20273;-80
2022/07/16 04:37:50;;;;;;;7.30;3.50;;;17.40;1.00;;;;;;5115983;28;20699;-81
2022/07/16 04:40:16;;;;;;;4.73;3.50;;;17.60;1.00;;;;;;5115766;28;20679;-80
2022/07/16 04:42:44;;;;;;;4.37;3.27;;;17.60;1.00;;;;;;5115379;28;20219;-81
2022/07/16 04:45:11;;;;;;;7.10;4.07;;;17.70;1.00;;;;;;5096679;28;20178;-81
2022/07/16 04:47:39;;;;;;;6.53;3.60;;;17.60;1.00;;;;;;5115134;28;20295;-81
2022/07/16 04:50:06;;;;;;;5.50;3.50;;;17.60;1.00;;;;;;5115057;28;20198;-80
2022/07/16 04:52:32;;;;;;;5.47;3.47;;;17.60;1.00;;;;;;5096522;28;20522;-81
2022/07/16 04:54:58;;;;;;;4.63;3.17;;;17.60;1.00;;;;;;5115071;28;20170;-80
2022/07/16 04:57:24;;;;;;;5.50;3.53;;;17.60;1.00;;;;;;5096033;28;20178;-81
2022/07/16 04:59:51;;;;;;;7.30;4.07;;;17.70;1.00;;;;;;5115027;28;20221;-81
2022/07/16 05:05:01;;;;;;;5.17;3.27;;;17.70;1.00;;;;;;5114960;28;20278;-81
2022/07/16 05:07:28;;;;;;;6.03;3.60;;;17.90;1.00;;;;;;5095388;28;20216;-79
2022/07/16 05:09:53;;;;;;;7.30;4.27;;;18.00;1.00;;;;;;5114582;28;20189;-79
2022/07/16 05:12:19;;;;;;;5.93;3.70;;;18.10;1.00;;;;;;5114192;28;20187;-80
2022/07/16 05:14:45;;;;;;;8.70;4.50;;;18.10;1.00;;;;;;5096487;28;20266;-80
2022/07/16 05:17:10;;;;;;;6.23;3.87;;;18.10;1.00;;;;;;5114536;28;20329;-79
2022/07/16 05:19:36;;;;;;;6.30;3.63;;;18.20;1.00;;;;;;5127160;28;20213;-79
2022/07/16 05:22:03;;;;;;;7.93;3.87;;;18.20;1.00;;;;;;5139189;28;20159;-80
2022/07/16 05:24:29;;;;;;;7.73;4.13;;;18.20;1.00;;;;;;5122269;28;20175;-79
2022/07/16 05:26:55;;;;;;;7.03;4.20;;;18.30;1.00;;;;;;5100500;28;20620;-80
2022/07/16 05:29:21;;;;;;;7.37;4.40;;;18.30;1.00;;;;;;5125073;28;20340;-79
2022/07/16 05:31:46;;;;;;;6.57;4.00;;;18.50;1.00;;;;;;5121203;28;20166;-80
2022/07/16 05:34:12;;;;;;;6.13;3.87;;;18.50;1.00;;;;;;5124540;28;20227;-79
2022/07/16 05:36:37;;;;;;;5.57;3.80;;;18.50;1.00;;;;;;5135134;28;20193;-79
2022/07/16 05:39:03;;;;;;;6.03;4.03;;;18.70;1.00;;;;;;5133911;28;20166;-79
2022/07/16 05:41:30;;;;;;;8.03;4.20;;;18.80;1.00;;;;;;5136717;28;20163;-80
2022/07/16 05:43:57;;;;;;;5.07;4.13;;;18.80;1.00;;;;;;5139406;28;20198;-78
2022/07/16 05:46:23;;;;;;;7.23;4.30;;;18.90;1.00;;;;;;5139488;28;20154;-78
2022/07/16 05:48:54;;;;;;;5.63;4.00;;;19.00;1.00;;;;;;5135634;28;20167;-79
2022/07/16 05:51:20;;;;;;;9.07;4.60;;;19.00;1.00;;;;;;5127727;28;20202;-80
2022/07/16 05:53:46;;;;;;;7.70;4.10;;;19.00;1.00;;;;;;5114193;28;20637;-81
2022/07/16 05:56:12;;;;;;;7.80;4.40;;;19.20;1.00;;;;;;5114200;28;20262;-81
2022/07/16 05:58:47;;;;;;;7.20;4.63;;;19.20;1.00;;;;;;5114252;28;20216;-81
2022/07/16 06:01:15;;;;;;;8.20;5.00;;;19.20;1.00;;;;;;5125803;28;20161;-81
2022/07/16 06:03:45;;;;;;;12.53;5.43;;;19.10;1.00;;;;;;5104744;28;20257;-80
2022/07/16 06:06:11;;;;;;;8.17;4.97;;;19.00;1.00;;;;;;5114256;28;20167;-81
2022/07/16 06:08:36;;;;;;;7.00;4.60;;;19.00;1.00;;;;;;5095855;28;20196;-79
2022/07/16 06:11:02;;;;;;;7.10;5.10;;;19.10;1.00;;;;;;5113657;28;20174;-80
2022/07/16 06:13:28;;;;;;;6.30;5.13;;;19.20;1.00;;;;;;5113918;28;20171;-80
2022/07/16 06:15:53;;;;;;;7.80;4.20;;;19.20;1.00;;;;;;5114419;28;20167;-80
2022/07/16 06:18:19;;;;;;;7.57;4.60;;;19.40;1.00;;;;;;5116317;28;20202;-80
2022/07/16 06:20:45;;;;;;;8.33;4.87;;;19.30;1.00;;;;;;5117926;28;20165;-80
2022/07/16 06:23:11;;;;;;;6.43;4.10;;;19.50;1.00;;;;;;5117566;28;20242;-81
2022/07/16 06:25:37;;;;;;;7.63;4.50;;;19.30;1.00;;;;;;5118136;28;20189;-81
2022/07/16 06:28:03;;;;;;;4.80;3.70;;;19.10;1.00;;;;;;5099920;28;20212;-80
2022/07/16 06:30:29;;;;;;;5.30;4.23;;;19.30;1.00;;;;;;5099904;28;20196;-81
2022/07/16 06:32:55;;;;;;;5.57;3.90;;;19.30;1.00;;;;;;5099745;28;20715;-81
2022/07/16 06:35:21;;;;;;;8.13;3.40;;;19.30;1.00;;;;;;5117628;28;20180;-81
2022/07/16 06:37:47;;;;;;;5.07;3.10;;;19.10;1.00;;;;;;5117418;28;20165;-81
2022/07/16 06:40:13;;;;;;;6.17;2.97;;;19.10;15.70;;;;;;5099699;28;20175;-80
2022/07/16 06:42:38;;;;;;;4.30;2.60;;;19.00;26.20;;;;;;5100104;28;20282;-80
2022/07/16 06:45:04;;;;;;;7.87;2.87;;;19.00;27.20;;;;;;5102687;28;20175;-81
2022/07/16 06:47:30;;;;;;;4.33;2.70;;;19.00;28.70;;;;;;5117931;28;20168;-81
2022/07/16 06:49:56;;;;;;;4.57;2.47;;;19.10;29.40;;;;;;5110643;28;20174;-81
2022/07/16 06:52:21;;;;;;;5.03;2.03;;;19.00;29.00;;;;;;5122838;28;20227;-80
2022/07/16 06:54:47;;;;;;;3.80;2.50;;;19.10;29.60;;;;;;5121244;28;20160;-80
2022/07/16 06:57:13;;;;;;;7.93;2.60;;;19.00;30.30;;;;;;5122056;28;20194;-80
2022/07/16 06:59:38;;;;;;;6.00;2.50;;;19.20;29.70;;;;;;5118832;28;20245;-80
2022/07/16 07:02:04;;;;;;;3.87;2.27;;;19.20;26.80;;;;;;5105572;28;20277;-80
2022/07/16 07:04:30;;;;;;;5.53;2.17;;;19.30;27.40;;;;;;5135701;28;20256;-81
2022/07/16 07:06:55;;;;;;;3.00;1.90;;;19.30;24.10;;;;;;5137520;28;20208;-81
2022/07/16 07:09:21;;;;;;;5.63;2.77;;;19.50;20.30;;;;;;5106864;28;20199;-80
2022/07/16 07:11:49;;;;;;;6.37;2.77;;;19.40;20.90;;;;;;5121772;28;20643;-81
2022/07/16 07:14:15;;;;;;;4.07;3.00;;;19.20;25.80;;;;;;5099959;28;20614;-81
2022/07/16 07:16:41;;;;;;;3.77;2.43;;;19.20;28.00;;;;;;5117908;28;20639;-82
2022/07/16 07:19:07;;;;;;;4.77;3.03;;;19.40;24.20;;;;;;5098741;28;20286;-80
2022/07/16 07:21:33;;;;;;;7.27;3.10;;;19.50;21.60;;;;;;5117156;28;20199;-80
2022/07/16 07:23:58;;;;;;;5.73;3.53;;;19.50;20.60;;;;;;5117034;28;20276;-81
2022/07/16 07:26:24;;;;;;;7.27;4.37;;;19.60;19.60;;;;;;5117199;28;20227;-81
2022/07/16 07:28:50;;;;;;;8.50;6.47;;;19.60;20.60;;;;;;5098037;28;20178;-81
2022/07/16 07:31:16;;;;;;;5.53;4.73;;;19.70;17.20;;;;;;5117910;28;20164;-81
2022/07/16 07:33:41;;;;;;;7.47;4.90;;;19.60;17.30;;;;;;5100299;28;20229;-83
2022/07/16 07:36:07;;;;;;;7.40;4.43;;;19.60;18.80;;;;;;5101770;28;20194;-81
2022/07/16 07:38:33;;;;;;;5.43;4.33;;;19.70;16.00;;;;;;5100017;28;20173;-81
2022/07/16 07:40:59;;;;;;;5.30;4.80;;;19.90;12.30;;;;;;5136893;28;20667;-81
2022/07/16 07:43:24;;;;;;;5.93;4.70;;;20.00;4.50;;;;;;5100826;28;20238;-82
2022/07/16 07:45:50;;;;;;;5.43;4.00;;;20.10;1.00;;;;;;5099308;28;20166;-81
2022/07/16 07:48:17;;;;;;;7.03;4.00;;;19.90;4.50;;;;;;5099014;28;20653;-81
2022/07/16 07:50:43;;;;;;;7.60;3.80;;;19.90;1.00;;;;;;5116910;28;20189;-80
2022/07/16 07:53:08;;;;;;;5.83;4.07;;;19.80;1.00;;;;;;5098663;28;20231;-81
2022/07/16 07:55:34;;;;;;;5.40;4.00;;;19.70;1.00;;;;;;5116682;28;20247;-80
2022/07/16 07:58:00;;;;;;;7.00;4.03;;;19.80;2.00;;;;;;5116426;28;20535;-81
2022/07/16 08:00:26;;;;;;;4.30;3.40;;;20.00;1.00;;;;;;5097970;28;20165;-81
2022/07/16 08:02:52;;;;;;;8.00;4.50;;;20.20;1.00;;;;;;5116408;28;20203;-82
2022/07/16 08:05:18;;;;;;;5.80;4.37;;;20.10;1.00;;;;;;5116032;28;20178;-79
2022/07/16 08:07:44;;;;;;;5.90;4.40;;;20.20;1.00;;;;;;5116148;28;20171;-79
2022/07/16 08:10:11;;;;;;;5.97;4.03;;;20.30;1.00;;;;;;5098472;28;20172;-80
2022/07/16 08:12:38;;;;;;;5.80;4.00;;;20.30;1.00;;;;;;5098029;28;20183;-81
2022/07/16 08:15:04;;;;;;;5.07;4.20;;;20.20;1.00;;;;;;5115840;28;20636;-79
2022/07/16 08:17:30;;;;;;;4.10;3.70;;;20.20;1.00;;;;;;5097737;28;20261;-83
2022/07/16 08:19:55;;;;;;;6.03;4.10;;;20.30;1.00;;;;;;5097245;28;20593;-81
2022/07/16 08:22:21;;;;;;;5.90;3.80;;;20.30;1.00;;;;;;5115401;28;20179;-81
2022/07/16 08:27:32;;;;;;;4.73;4.07;;;20.30;1.00;;;;;;5115869;28;20175;-82
2022/07/16 08:29:58;;;;;;;5.10;3.57;;;20.20;1.00;;;;;;5097720;28;20174;-80
2022/07/16 08:32:23;;;;;;;4.80;3.83;;;20.10;1.00;;;;;;5097622;28;20178;-80
2022/07/16 08:34:50;;;;;;;3.57;3.27;;;20.10;1.00;;;;;;5129761;28;20165;-82
2022/07/16 08:37:36;;;;;;;4.27;3.23;;;20.20;1.00;;;;;;5138808;28;20189;-82
2022/07/16 08:40:05;;;;;;;5.43;3.30;;;20.40;1.00;;;;;;5121726;28;20184;-81
2022/07/16 08:42:33;;;;;;;5.13;3.33;;;20.70;1.00;;;;;;5126055;28;20556;-82
2022/07/16 08:45:04;;;;;;;3.40;2.93;;;20.70;1.00;;;;;;5102431;28;20512;-81
2022/07/16 08:47:34;;;;;;;3.33;2.47;;;20.60;1.00;;;;;;5115890;28;20155;-82
2022/07/16 08:50:05;;;;;;;3.53;2.60;;;20.60;1.00;;;;;;5115370;28;20216;-80
2022/07/16 08:52:34;;;;;;;5.00;2.47;;;20.60;1.00;;;;;;5114929;28;20266;-80
2022/07/16 08:55:00;;;;;;;4.33;2.70;;;20.70;1.00;;;;;;5117511;28;20181;-81
2022/07/16 08:57:25;;;;;;;4.53;2.30;;;20.60;1.00;;;;;;5135359;28;20182;-78
2022/07/16 08:59:52;;;;;;;4.63;2.10;;;20.70;1.00;;;;;;5121819;28;20181;-80
2022/07/16 09:02:18;;;;;;;4.10;2.00;;;20.90;1.00;;;;;;5110826;28;20185;-81
2022/07/16 09:04:46;;;;;;;3.13;1.93;;;21.10;1.00;;;;;;5124602;28;20178;-81
2022/07/16 09:07:21;;;;;;;3.83;2.23;;;21.20;1.00;;;;;;5097979;28;20162;-81
2022/07/16 09:09:47;;;;;;;3.17;1.70;;;21.20;1.00;;;;;;5097086;28;20517;-81
2022/07/16 09:12:39;;;;;;;2.63;1.80;;;21.30;1.00;;;;;;5097690;28;20231;-80
2022/07/16 09:15:25;;;;;;;3.90;1.93;;;21.30;1.00;;;;;;5099769;28;20177;-79
2022/07/16 09:18:07;;;;;;;4.20;1.70;;;21.40;1.00;;;;;;5118677;28;20163;-80
2022/07/16 09:20:34;;;;;;;6.50;2.50;;;21.50;1.00;;;;;;5136636;28;20155;-82
2022/07/16 09:22:59;;;;;;;5.47;2.20;;;21.50;1.00;;;;;;5139012;28;20213;-80
2022/07/16 09:25:25;;;;;;;4.10;1.90;;;21.50;1.00;;;;;;5111344;28;20186;-80
2022/07/16 09:27:58;;;;;;;2.53;1.80;;;21.50;1.00;;;;;;5116173;28;20204;-79
2022/07/16 09:30:27;;;;;;;3.70;2.10;;;21.40;1.00;;;;;;5112979;28;20186;-81
2022/07/16 09:33:10;;;;;;;4.53;2.27;;;21.40;1.00;;;;;;5118656;28;20194;-81
2022/07/16 09:35:35;;;;;;;6.03;1.90;;;21.50;1.00;;;;;;5116062;28;20190;-82
2022/07/16 09:38:01;;;;;;;3.67;1.80;;;21.40;1.00;;;;;;5097692;28;20229;-81
2022/07/16 09:40:35;;;;;;;4.13;2.07;;;21.50;1.00;;;;;;5097935;28;20178;-80
2022/07/16 09:43:16;;;;;;;3.37;2.13;;;21.80;1.00;;;;;;5100791;28;20230;-81
2022/07/16 09:45:44;;;;;;;2.60;1.97;;;21.90;1.00;;;;;;5131304;28;20255;-80
2022/07/16 09:48:35;;;;;;;2.80;1.90;;;21.90;1.00;;;;;;5128682;28;20170;-80
2022/07/16 09:51:19;;;;;;;2.90;1.80;;;21.70;1.00;;;;;;5120882;28;20166;-81
2022/07/16 09:53:48;;;;;;;4.87;1.67;;;21.70;99.90;;;;;;5116959;28;20167;-82
2022/07/16 09:56:26;;;;;;;3.63;1.93;;;21.60;99.90;;;;;;5128131;27;20256;-83
2022/07/16 09:58:58;;;;;;;2.97;1.50;;;21.50;1.00;;;;;;5149098;27;20194;-82
2022/07/16 10:01:24;;;;;;;2.27;1.70;;;21.70;1.00;;;;;;5141181;27;20176;-81
2022/07/16 10:03:51;;;;;;;4.23;1.43;;;21.60;1.00;;;;;;5135670;27;20743;-82
2022/07/16 10:06:17;;;;;;;4.03;1.80;;;21.70;1.00;;;;;;5119177;28;20174;-82
2022/07/16 10:08:44;;;;;;;2.47;1.30;;;21.90;1.00;;;;;;5111772;27;20219;-83
2022/07/16 10:11:10;;;;;;;3.57;2.00;;;21.90;1.00;;;;;;5140918;27;20163;-82
2022/07/16 10:13:37;;;;;;;3.47;1.50;;;22.10;1.00;;;;;;5133937;27;20260;-83
2022/07/16 10:16:03;;;;;;;4.87;1.30;;;22.20;1.00;;;;;;5134421;28;20170;-82
2022/07/16 10:18:35;;;;;;;3.60;1.20;;;21.90;1.00;;;;;;5123101;28;20203;-82
2022/07/16 10:21:15;;;;;;;3.37;1.40;;;21.60;99.90;;;;;;5113065;28;20530;-82
2022/07/16 10:23:47;;;;;;;2.60;1.07;;;21.60;1.00;;;;;;5127949;27;20217;-82
2022/07/16 10:26:20;;;;;;;3.20;1.73;;;21.60;1.00;;;;;;5119607;27;20166;-82
2022/07/16 10:28:51;;;;;;;2.53;1.70;;;21.70;99.90;;;;;;5115261;28;20274;-82
2022/07/16 10:32:27;;;;;;;4.10;1.83;;;21.90;99.90;;;;;;5117044;28;20200;-83
2022/07/16 10:34:33;;;;;;;3.00;1.50;;;22.00;99.90;;;;;;5134504;28;20164;-84
2022/07/16 10:37:00;;;;;;;1.80;0.97;;;22.00;99.90;;;;;;5116400;28;20192;-85
2022/07/16 10:39:27;;;;;;;2.37;1.27;;;22.20;5.30;;;;;;5136353;27;20195;-86
2022/07/16 10:41:58;;;;;;;1.50;0.87;;;22.40;1.00;;;;;;5121820;28;20186;-82
2022/07/16 10:44:26;;;;;;;2.33;1.10;;;22.50;1.00;;;;;;5097220;28;20208;-83
2022/07/16 10:47:00;;;;;;;3.93;1.57;;;22.60;99.90;;;;;;5127892;28;20180;-81
2022/07/16 10:49:28;;;;;;;10.27;1.80;;;22.60;1.00;;;;;;5145844;27;20262;-83
2022/07/16 10:51:57;;;;;;;3.87;1.30;;;22.60;1.00;;;;;;5142647;28;20173;-82
2022/07/16 10:54:36;;;;;;;6.17;1.47;;;22.80;1.00;;;;;;5127863;28;20616;-81
2022/07/16 10:57:06;;;;;;;3.77;1.30;;;23.00;1.00;;;;;;5130325;28;20185;-82
2022/07/16 10:59:40;;;;;;;2.73;1.10;;;23.00;99.90;;;;;;5099818;28;20186;-81
2022/07/16 11:02:09;;;;;;;5.07;1.40;;;23.00;1.00;;;;;;5114358;28;20164;-82
2022/07/16 11:04:37;;;;;;;1.70;1.20;;;23.10;99.90;;;;;;5145344;27;20565;-80
2022/07/16 11:07:11;;;;;;;2.60;1.10;;;23.10;99.90;;;;;;5140294;27;20216;-82
2022/07/16 11:09:44;;;;;;;3.07;1.13;;;23.00;1.00;;;;;;5158865;27;20658;-81
2022/07/16 11:12:10;;;;;;;1.37;1.00;;;22.90;1.00;;;;;;5135219;27;20199;-82
2022/07/16 11:14:38;;;;;;;3.77;1.37;;;22.80;32.90;;;;;;5117453;28;20168;-80
2022/07/16 11:17:04;;;;;;;2.23;1.23;;;22.90;1.00;;;;;;5098349;28;20176;-82
2022/07/16 11:19:34;;;;;;;2.17;1.20;;;22.90;1.00;;;;;;5117347;28;20190;-82
2022/07/16 11:22:01;;;;;;;4.73;1.30;;;22.90;1.00;;;;;;5135137;27;20246;-81
2022/07/16 11:24:29;;;;;;;3.17;1.30;;;23.10;1.00;;;;;;5137845;27;20210;-81
2022/07/16 11:26:56;;;;;;;2.93;1.37;;;23.30;99.90;;;;;;5137728;27;20171;-82
2022/07/16 11:29:25;;;;;;;1.93;1.10;;;23.50;99.90;;;;;;5121343;27;20223;-81
2022/07/16 11:31:52;;;;;;;3.13;1.30;;;23.60;13.80;;;;;;5139293;27;20174;-81
2022/07/16 11:34:22;;;;;;;3.47;1.17;;;23.40;16.90;;;;;;5138925;27;20178;-82
2022/07/16 11:36:52;;;;;;;2.90;1.27;;;23.20;99.90;;;;;;5119047;27;20549;-83
2022/07/16 11:39:22;;;;;;;2.53;1.00;;;23.20;1.00;;;;;;5123417;27;20173;-80
2022/07/16 11:41:50;;;;;;;2.93;1.20;;;23.10;99.90;;;;;;5098447;28;20177;-82
2022/07/16 11:44:22;;;;;;;2.30;1.10;;;23.10;99.90;;;;;;5098002;28;20282;-81
2022/07/16 11:46:47;;;;;;;1.90;1.00;;;23.40;1.00;;;;;;5112189;27;20177;-81
2022/07/16 11:49:24;;;;;;;1.73;1.03;;;23.50;99.90;;;;;;5127078;27;20185;-82
2022/07/16 11:51:50;;;;;;;2.30;1.40;;;23.50;99.90;;;;;;5126011;27;20180;-82
2022/07/16 11:54:17;;;;;;;3.90;1.50;;;23.70;1.00;;;;;;5117147;28;20222;-80
2022/07/16 11:56:43;;;;;;;3.57;1.50;;;23.80;1.00;;;;;;5117214;28;20577;-80
2022/07/16 11:59:27;;;;;;;1.63;1.10;;;23.80;1.00;;;;;;5153189;27;20253;-80
2022/07/16 12:02:10;;;;;;;3.10;1.80;;;23.80;1.00;;;;;;5145273;27;20199;-81
2022/07/16 12:04:42;;;;;;;4.93;1.77;;;23.80;1.00;;;;;;5147872;27;20208;-80
2022/07/16 12:07:14;;;;;;;2.73;1.57;;;23.60;1.00;;;;;;5117692;28;20170;-80
2022/07/16 12:09:42;;;;;;;2.20;1.10;;;23.50;99.90;;;;;;5098997;28;20178;-81
2022/07/16 12:12:14;;;;;;;2.70;1.37;;;23.80;99.90;;;;;;5117261;28;20219;-80
2022/07/16 12:14:45;;;;;;;4.67;1.80;;;24.10;99.90;;;;;;5127417;27;20174;-80
2022/07/16 12:17:38;;;;;;;4.33;1.47;;;24.30;2.20;;;;;;5147055;27;20227;-79
2022/07/16 12:20:08;;;;;;;4.57;1.60;;;24.30;1.00;;;;;;5147587;27;20237;-81
2022/07/16 12:23:05;;;;;;;3.30;1.30;;;24.10;99.90;;;;;;5151303;27;20173;-81
2022/07/16 12:25:45;;;;;;;2.23;1.20;;;24.10;99.90;;;;;;5142269;27;20186;-80
2022/07/16 12:28:19;;;;;;;2.90;1.30;;;23.90;99.90;;;;;;5110338;28;20579;-82
2022/07/16 12:31:11;;;;;;;4.07;1.60;;;24.10;99.90;;;;;;5116982;27;20158;-80
2022/07/16 12:33:50;;;;;;;2.40;1.40;;;24.30;1.00;;;;;;5121061;27;20178;-81
2022/07/16 12:36:15;;;;;;;4.57;1.40;;;24.20;99.90;;;;;;5148364;27;20189;-79
2022/07/16 12:38:55;;;;;;;2.90;1.50;;;24.00;99.90;;;;;;5151415;27;20269;-81
2022/07/16 12:41:21;;;;;;;2.93;1.40;;;23.90;99.90;;;;;;5117728;27;20640;-79
2022/07/16 12:43:53;;;;;;;2.23;1.50;;;23.70;1.00;;;;;;5117808;27;20214;-79
2022/07/16 12:46:21;;;;;;;3.13;1.60;;;23.40;24.80;;;;;;5117144;27;20170;-80
2022/07/16 12:49:10;;;;;;;3.37;1.70;;;23.60;99.90;;;;;;5123734;27;20185;-79
2022/07/16 12:51:39;;;;;;;4.43;1.63;;;23.80;1.00;;;;;;5135214;27;20552;-78
2022/07/16 12:54:06;;;;;;;3.37;1.57;;;24.10;1.00;;;;;;5135557;27;20200;-78
2022/07/16 12:59:18;;;;;;;3.30;1.40;;;24.10;1.00;;;;;;5135576;27;20176;-80
2022/07/16 13:01:45;;;;;;;3.50;1.67;;;24.30;1.00;;;;;;5135572;27;20580;-81
2022/07/16 13:04:11;;;;;;;4.10;1.90;;;24.50;1.00;;;;;;5135818;27;20209;-79
2022/07/16 13:06:38;;;;;;;4.13;1.90;;;24.50;1.00;;;;;;5127729;27;20530;-82
2022/07/16 13:09:06;;;;;;;2.37;1.37;;;24.40;99.90;;;;;;5115716;28;20174;-79
2022/07/16 13:11:33;;;;;;;4.87;1.77;;;24.10;99.90;;;;;;5116796;28;20201;-79